Time;durP1;ratioP1;P1;durP2;ratioP2;P2;SDS_P1;SDS_P2;PMS_P1;PMS_P2;Temp;Humidity;BMP_temperature;BMP_pressure;BME280_temperature;BME280_humidity;BME280_pressure;Samples;Min_cycle;Max_cycle;Signal;HPM_P1;HPM_P2
2022/06/17 00:01:13;;;;;;;1.40;0.90;;;27.70;42.30;;;;;;5060339;28;20044;-66
2022/06/17 00:03:39;;;;;;;1.80;1.20;;;27.70;41.30;;;;;;5057880;28;20032;-66
2022/06/17 00:06:05;;;;;;;1.65;1.00;;;27.70;41.30;;;;;;5061323;28;20076;-62
2022/06/17 00:08:42;;;;;;;1.92;1.20;;;27.70;41.30;;;;;;5059474;28;20060;-60
2022/06/17 00:11:20;;;;;;;2.08;1.50;;;27.80;41.30;;;;;;5058463;28;20035;-61
2022/06/17 00:13:46;;;;;;;1.85;1.23;;;27.80;41.00;;;;;;5059650;28;20032;-62
2022/06/17 00:16:14;;;;;;;1.85;1.17;;;27.70;41.00;;;;;;5061638;28;20851;-66
2022/06/17 00:18:40;;;;;;;1.92;1.20;;;27.70;41.00;;;;;;5057683;28;20029;-62
2022/06/17 00:21:06;;;;;;;1.60;1.10;;;27.70;41.10;;;;;;5058130;28;20032;-64
2022/06/17 00:23:32;;;;;;;1.83;1.20;;;27.70;40.90;;;;;;5058388;28;20037;-63
2022/06/17 00:25:57;;;;;;;2.50;1.20;;;27.70;40.60;;;;;;5056618;28;20036;-62
2022/06/17 00:28:24;;;;;;;1.85;1.30;;;27.80;40.70;;;;;;5059772;28;20468;-65
2022/06/17 00:30:50;;;;;;;1.60;1.10;;;27.80;40.60;;;;;;5058060;28;20059;-62
2022/06/17 00:33:18;;;;;;;1.77;1.05;;;27.80;40.60;;;;;;5059203;28;20023;-67
2022/06/17 00:35:50;;;;;;;1.40;1.10;;;27.80;40.80;;;;;;5059213;28;20038;-64
2022/06/17 00:38:23;;;;;;;1.90;1.00;;;27.80;41.10;;;;;;5059685;28;20028;-59
2022/06/17 00:40:50;;;;;;;1.67;1.10;;;27.80;41.10;;;;;;5057850;28;20036;-63
2022/06/17 00:43:24;;;;;;;1.30;0.90;;;27.80;41.30;;;;;;5058763;28;20112;-62
2022/06/17 00:45:58;;;;;;;1.67;1.08;;;27.80;41.50;;;;;;5055393;28;20096;-61
2022/06/17 00:48:31;;;;;;;1.67;1.15;;;27.80;41.60;;;;;;5057743;28;20129;-64
2022/06/17 00:51:19;;;;;;;2.05;0.90;;;27.80;41.70;;;;;;5060896;28;20115;-64
2022/06/17 00:54:06;;;;;;;1.45;0.93;;;27.80;41.70;;;;;;5056288;28;20054;-64
2022/06/17 00:56:34;;;;;;;2.15;1.15;;;27.90;41.90;;;;;;5059045;28;20067;-64
2022/06/17 00:59:00;;;;;;;2.03;1.00;;;27.90;42.00;;;;;;5059947;28;20032;-62
2022/06/17 01:01:27;;;;;;;2.15;1.10;;;27.90;42.10;;;;;;5058269;28;20404;-64
2022/06/17 01:03:56;;;;;;;1.10;1.00;;;27.90;42.10;;;;;;5061622;28;20046;-63
2022/06/17 01:06:27;;;;;;;1.15;1.00;;;27.90;42.20;;;;;;5059282;28;20076;-64
2022/06/17 01:12:11;;;;;;;1.60;1.08;;;27.80;42.40;;;;;;5012655;28;20520;-65
2022/06/17 01:14:40;;;;;;;1.60;0.95;;;27.80;42.40;;;;;;5049235;28;20162;-67
2022/06/17 01:17:08;;;;;;;1.17;1.08;;;27.80;42.50;;;;;;5058167;28;20028;-65
2022/06/17 01:19:41;;;;;;;0.90;0.80;;;27.80;43.10;;;;;;5057807;28;20066;-66
2022/06/17 01:22:26;;;;;;;1.63;1.00;;;27.80;42.70;;;;;;5057506;28;20050;-64
2022/06/17 01:24:59;;;;;;;1.00;0.90;;;27.70;42.80;;;;;;5056924;28;20365;-65
2022/06/17 01:27:28;;;;;;;1.77;0.90;;;27.70;42.80;;;;;;5057414;28;20338;-67
2022/06/17 01:29:54;;;;;;;1.25;0.90;;;27.60;42.90;;;;;;5058006;28;20126;-60
2022/06/17 01:32:24;;;;;;;1.55;0.88;;;27.60;43.00;;;;;;5056420;28;20047;-68
2022/06/17 01:34:51;;;;;;;1.20;0.90;;;27.60;43.10;;;;;;5056965;28;20097;-60
2022/06/17 01:37:17;;;;;;;1.15;0.90;;;27.60;43.00;;;;;;5056867;28;20455;-66
2022/06/17 01:39:43;;;;;;;1.35;1.05;;;27.60;43.10;;;;;;5058038;28;20036;-61
2022/06/17 01:42:12;;;;;;;1.55;1.00;;;27.60;43.20;;;;;;5056308;28;20555;-65
2022/06/17 01:44:39;;;;;;;1.00;0.80;;;27.60;43.10;;;;;;5057987;28;20036;-65
2022/06/17 01:47:18;;;;;;;1.20;0.90;;;27.60;43.10;;;;;;5070366;28;20066;-62
2022/06/17 01:49:53;;;;;;;0.85;0.82;;;27.60;43.20;;;;;;5058246;28;20033;-67
2022/06/17 01:52:32;;;;;;;0.90;0.80;;;27.50;43.20;;;;;;5055990;28;20558;-66
2022/06/17 01:55:06;;;;;;;1.10;0.80;;;27.50;43.30;;;;;;5055735;28;20065;-64
2022/06/17 01:57:39;;;;;;;1.42;0.95;;;27.50;43.30;;;;;;5057803;28;20024;-61
2022/06/17 02:00:14;;;;;;;0.90;0.80;;;27.50;43.40;;;;;;5056567;28;20032;-65
2022/06/17 02:02:42;;;;;;;1.20;0.80;;;27.50;43.10;;;;;;5057629;28;20021;-65
2022/06/17 02:05:09;;;;;;;0.90;0.80;;;27.50;43.50;;;;;;5056380;28;20448;-65
2022/06/17 02:07:43;;;;;;;1.60;1.08;;;27.50;43.50;;;;;;5056920;28;20520;-64
2022/06/17 02:10:09;;;;;;;1.23;0.85;;;27.50;43.50;;;;;;5055580;28;20042;-60
2022/06/17 02:12:36;;;;;;;0.75;0.70;;;27.50;43.50;;;;;;5057416;28;20105;-64
2022/06/17 02:15:02;;;;;;;1.23;0.90;;;27.40;43.50;;;;;;5057259;28;20064;-68
2022/06/17 02:17:32;;;;;;;1.27;0.90;;;27.40;43.60;;;;;;5056350;28;20514;-65
2022/06/17 02:19:58;;;;;;;1.20;0.93;;;27.40;43.60;;;;;;5056518;28;20123;-65
2022/06/17 02:22:29;;;;;;;0.90;0.73;;;27.40;43.60;;;;;;5056521;28;20123;-64
2022/06/17 02:25:03;;;;;;;0.90;0.80;;;27.40;43.60;;;;;;5054531;28;20134;-67
2022/06/17 02:27:32;;;;;;;1.10;0.85;;;27.40;43.70;;;;;;5056993;28;20064;-65
2022/06/17 02:30:00;;;;;;;1.02;0.80;;;27.40;43.60;;;;;;5057812;28;20031;-67
2022/06/17 02:32:26;;;;;;;0.93;0.80;;;27.40;43.70;;;;;;5054273;28;20397;-64
2022/06/17 02:35:03;;;;;;;1.02;0.80;;;27.30;43.70;;;;;;5056091;28;20102;-64
2022/06/17 02:37:29;;;;;;;0.93;0.80;;;27.30;43.70;;;;;;5050199;28;20059;-60
2022/06/17 02:39:58;;;;;;;0.98;0.88;;;27.30;43.70;;;;;;5055091;28;20486;-65
2022/06/17 02:42:27;;;;;;;1.00;0.70;;;27.30;43.80;;;;;;5056647;28;20166;-63
2022/06/17 02:45:01;;;;;;;1.63;1.08;;;27.30;43.80;;;;;;5054776;28;20032;-65
2022/06/17 02:47:28;;;;;;;0.70;0.70;;;27.30;43.80;;;;;;5056132;28;20083;-63
2022/06/17 02:49:54;;;;;;;1.20;0.80;;;27.30;43.90;;;;;;5056262;28;22145;-60
2022/06/17 02:52:33;;;;;;;0.82;0.70;;;27.20;43.90;;;;;;5059121;28;20073;-67
2022/06/17 02:55:04;;;;;;;0.73;0.70;;;27.20;43.90;;;;;;5058304;28;20031;-65
2022/06/17 02:57:30;;;;;;;1.15;0.80;;;27.20;44.00;;;;;;5061648;28;20035;-62
2022/06/17 03:00:33;;;;;;;0.90;0.80;;;27.20;44.00;;;;;;5060831;28;20090;-62
2022/06/17 03:03:04;;;;;;;0.77;0.75;;;27.20;44.00;;;;;;5036841;28;20050;-61
2022/06/17 03:05:33;;;;;;;0.77;0.68;;;27.20;44.00;;;;;;5058073;28;20056;-60
2022/06/17 03:07:59;;;;;;;0.70;0.70;;;27.20;44.10;;;;;;5058199;28;20064;-66
2022/06/17 03:10:34;;;;;;;0.80;0.73;;;27.20;44.10;;;;;;5059372;28;21437;-63
2022/06/17 03:13:22;;;;;;;1.00;0.90;;;27.10;44.00;;;;;;5060443;28;20033;-65
2022/06/17 03:15:52;;;;;;;1.23;0.80;;;27.10;44.10;;;;;;5060036;28;20067;-65
2022/06/17 03:18:19;;;;;;;0.80;0.80;;;27.10;44.10;;;;;;5059452;28;20407;-61
2022/06/17 03:20:47;;;;;;;0.80;0.80;;;27.10;44.10;;;;;;5060524;28;20033;-64
2022/06/17 03:23:22;;;;;;;1.10;0.90;;;27.10;44.20;;;;;;5058719;28;20029;-64
2022/06/17 03:25:56;;;;;;;0.70;0.70;;;27.00;44.10;;;;;;5058803;28;20040;-67
2022/06/17 03:28:29;;;;;;;0.73;0.68;;;27.00;44.30;;;;;;5059728;28;20120;-65
2022/06/17 03:31:13;;;;;;;1.48;0.88;;;27.00;44.20;;;;;;5058452;28;20108;-62
2022/06/17 03:33:47;;;;;;;0.95;0.80;;;27.00;44.30;;;;;;5062426;28;20048;-62
2022/06/17 03:36:34;;;;;;;0.82;0.80;;;27.00;44.30;;;;;;5061041;28;20101;-66
2022/06/17 03:39:03;;;;;;;0.85;0.70;;;27.00;44.30;;;;;;5056420;28;20029;-63
2022/06/17 03:41:42;;;;;;;1.00;0.80;;;27.00;44.30;;;;;;5058778;28;20438;-66
2022/06/17 03:44:14;;;;;;;0.80;0.70;;;27.00;44.30;;;;;;5058292;28;20056;-64
2022/06/17 03:46:59;;;;;;;0.85;0.77;;;26.90;44.30;;;;;;5059896;28;20152;-62
2022/06/17 03:49:26;;;;;;;0.75;0.70;;;27.00;44.40;;;;;;5057686;28;20060;-61
2022/06/17 03:51:56;;;;;;;1.08;0.68;;;26.90;44.40;;;;;;5059758;28;20040;-64
2022/06/17 03:54:22;;;;;;;0.65;0.65;;;26.90;44.40;;;;;;5057125;28;20260;-64
2022/06/17 03:56:52;;;;;;;0.80;0.70;;;26.90;44.40;;;;;;5058872;28;20017;-66
2022/06/17 03:59:28;;;;;;;0.80;0.80;;;26.90;44.40;;;;;;5059459;28;20054;-63
2022/06/17 04:02:03;;;;;;;0.75;0.70;;;26.80;44.40;;;;;;5059194;28;20055;-64
2022/06/17 04:04:34;;;;;;;0.80;0.80;;;26.90;44.50;;;;;;5058638;28;20464;-65
2022/06/17 04:07:00;;;;;;;0.80;0.68;;;26.80;44.50;;;;;;5058113;28;20439;-65
2022/06/17 04:09:31;;;;;;;0.70;0.70;;;26.80;44.50;;;;;;5057349;28;20064;-65
2022/06/17 04:12:12;;;;;;;0.60;0.60;;;26.80;44.60;;;;;;5059633;28;20032;-65
2022/06/17 04:15:06;;;;;;;1.00;0.70;;;26.70;44.50;;;;;;5059099;28;20532;-60
2022/06/17 04:17:44;;;;;;;0.70;0.70;;;26.70;44.60;;;;;;5059512;28;20589;-65
2022/06/17 04:20:34;;;;;;;0.82;0.73;;;26.80;44.60;;;;;;5057106;28;20029;-64
2022/06/17 04:23:20;;;;;;;0.60;0.60;;;26.70;44.60;;;;;;5060090;28;20056;-61
2022/06/17 04:26:07;;;;;;;0.60;0.60;;;26.70;44.60;;;;;;5057738;28;20065;-64
2022/06/17 04:28:44;;;;;;;1.23;0.80;;;26.70;44.60;;;;;;5058576;28;20033;-68
2022/06/17 04:31:20;;;;;;;0.85;0.80;;;26.70;44.70;;;;;;5059271;28;20689;-64
2022/06/17 04:33:51;;;;;;;1.10;0.80;;;26.70;44.70;;;;;;5057936;28;20029;-65
2022/06/17 04:36:26;;;;;;;0.82;0.60;;;26.70;44.70;;;;;;5056944;28;20066;-64
2022/06/17 04:39:04;;;;;;;1.23;0.80;;;26.70;44.80;;;;;;5055081;28;20043;-64
2022/06/17 04:41:35;;;;;;;0.70;0.70;;;26.60;44.80;;;;;;5057585;28;20042;-66
2022/06/17 04:44:04;;;;;;;0.60;0.60;;;26.70;44.80;;;;;;5057740;28;20047;-60
2022/06/17 04:46:42;;;;;;;0.80;0.77;;;26.60;44.80;;;;;;5059240;28;20032;-67
2022/06/17 04:49:20;;;;;;;0.60;0.60;;;26.60;44.80;;;;;;5057112;28;20024;-68
2022/06/17 04:51:46;;;;;;;1.02;0.70;;;26.60;44.80;;;;;;5059232;28;20029;-62
2022/06/17 04:54:12;;;;;;;0.82;0.73;;;26.60;44.80;;;;;;5055740;28;20111;-60
2022/06/17 04:56:43;;;;;;;0.60;0.60;;;26.60;44.90;;;;;;5058129;28;20127;-64
2022/06/17 04:59:41;;;;;;;0.70;0.60;;;26.50;44.80;;;;;;5058533;28;20029;-67
2022/06/17 05:02:20;;;;;;;1.02;0.90;;;26.60;44.90;;;;;;5056164;28;20045;-62
2022/06/17 05:04:49;;;;;;;0.75;0.75;;;26.60;44.90;;;;;;5057865;28;20029;-65
2022/06/17 05:07:15;;;;;;;0.80;0.70;;;26.60;44.90;;;;;;5057152;28;20055;-65
2022/06/17 05:09:56;;;;;;;0.70;0.70;;;26.50;44.90;;;;;;5056121;28;20031;-62
2022/06/17 05:12:29;;;;;;;0.65;0.65;;;26.60;45.00;;;;;;5057777;28;20079;-65
2022/06/17 05:15:00;;;;;;;0.60;0.60;;;26.50;44.90;;;;;;5054998;28;20021;-60
2022/06/17 05:17:25;;;;;;;0.80;0.70;;;26.50;45.00;;;;;;5058174;28;20029;-60
2022/06/17 05:19:53;;;;;;;0.60;0.60;;;26.50;45.00;;;;;;5057716;28;20105;-67
2022/06/17 05:22:29;;;;;;;1.10;0.70;;;26.50;45.00;;;;;;5056156;28;20100;-63
2022/06/17 05:25:02;;;;;;;1.08;0.70;;;26.50;45.00;;;;;;5056049;28;20127;-61
2022/06/17 05:27:28;;;;;;;0.65;0.65;;;26.50;45.00;;;;;;5058459;28;20027;-61
2022/06/17 05:29:54;;;;;;;0.68;0.60;;;26.50;45.10;;;;;;5058028;28;20044;-62
2022/06/17 05:32:20;;;;;;;0.60;0.60;;;26.40;45.00;;;;;;5056197;28;20441;-65
2022/06/17 05:34:48;;;;;;;0.60;0.60;;;26.50;45.10;;;;;;5058078;28;20636;-61
2022/06/17 05:37:14;;;;;;;0.93;0.80;;;26.40;45.10;;;;;;5057864;28;20032;-65
2022/06/17 05:39:40;;;;;;;0.70;0.70;;;26.40;45.10;;;;;;5055158;28;20030;-67
2022/06/17 05:42:06;;;;;;;0.82;0.70;;;26.40;45.10;;;;;;5054896;28;20036;-65
2022/06/17 05:44:32;;;;;;;0.57;0.57;;;26.40;45.10;;;;;;5055407;28;20075;-65
2022/06/17 05:46:58;;;;;;;1.00;0.80;;;26.40;45.60;;;;;;5059211;28;20081;-63
2022/06/17 05:49:24;;;;;;;0.75;0.70;;;26.40;45.10;;;;;;5057787;28;20306;-65
2022/06/17 05:51:50;;;;;;;0.70;0.70;;;26.40;45.10;;;;;;5054761;28;20135;-68
2022/06/17 05:54:16;;;;;;;0.68;0.68;;;26.40;45.10;;;;;;5052996;28;20105;-63
2022/06/17 05:56:41;;;;;;;0.80;0.70;;;26.40;45.10;;;;;;5056844;28;20349;-65
2022/06/17 05:59:07;;;;;;;0.70;0.70;;;26.40;45.20;;;;;;5057136;28;20021;-67
2022/06/17 06:01:33;;;;;;;0.88;0.70;;;26.40;45.20;;;;;;5056400;28;20051;-67
2022/06/17 06:03:58;;;;;;;0.80;0.80;;;26.40;45.20;;;;;;5057350;28;20519;-67
2022/06/17 06:06:24;;;;;;;1.10;0.75;;;26.40;45.20;;;;;;5056825;28;20019;-67
2022/06/17 06:08:50;;;;;;;0.93;0.60;;;26.40;45.20;;;;;;5052949;28;20426;-64
2022/06/17 06:11:15;;;;;;;0.70;0.65;;;26.40;45.20;;;;;;5054962;28;20086;-65
2022/06/17 06:13:41;;;;;;;0.70;0.70;;;26.30;45.10;;;;;;5057419;28;20020;-62
2022/06/17 06:16:08;;;;;;;0.90;0.75;;;26.30;45.20;;;;;;5057377;28;20025;-67
2022/06/17 06:18:39;;;;;;;0.98;0.75;;;26.40;45.30;;;;;;5054804;28;20020;-64
2022/06/17 06:21:05;;;;;;;0.70;0.70;;;26.40;45.30;;;;;;5054922;28;20148;-61
2022/06/17 06:23:43;;;;;;;0.75;0.75;;;26.30;45.30;;;;;;5052851;28;20032;-62
2022/06/17 06:26:17;;;;;;;0.70;0.60;;;26.30;45.20;;;;;;5060008;28;20028;-60
2022/06/17 06:28:44;;;;;;;0.90;0.70;;;26.30;45.30;;;;;;5061702;28;20400;-64
2022/06/17 06:31:30;;;;;;;0.70;0.70;;;26.30;45.30;;;;;;5062930;28;20060;-64
2022/06/17 06:33:56;;;;;;;0.90;0.77;;;26.30;45.20;;;;;;5062041;28;20027;-60
2022/06/17 06:36:21;;;;;;;1.98;0.70;;;26.30;45.30;;;;;;5062490;28;20593;-66
2022/06/17 06:38:48;;;;;;;0.70;0.70;;;26.30;45.30;;;;;;5059759;28;20074;-64
2022/06/17 06:41:20;;;;;;;0.80;0.63;;;26.30;45.30;;;;;;5062590;28;20062;-62
2022/06/17 06:43:46;;;;;;;1.02;0.80;;;26.30;45.30;;;;;;5063088;28;20024;-64
2022/06/17 06:46:14;;;;;;;0.70;0.70;;;26.30;45.30;;;;;;5062577;28;20032;-62
2022/06/17 06:48:40;;;;;;;0.80;0.77;;;26.30;45.30;;;;;;5062806;28;20033;-65
2022/06/17 06:51:06;;;;;;;1.02;0.70;;;26.30;45.30;;;;;;5063131;28;20100;-61
2022/06/17 06:53:32;;;;;;;0.65;0.60;;;26.30;45.30;;;;;;5060695;28;20044;-64
2022/06/17 06:55:57;;;;;;;1.08;0.70;;;26.30;45.30;;;;;;5063749;28;20121;-67
2022/06/17 06:58:25;;;;;;;0.70;0.68;;;26.30;45.30;;;;;;5063485;28;20119;-62
2022/06/17 07:00:54;;;;;;;0.80;0.70;;;26.30;45.30;;;;;;5062906;28;20109;-64
2022/06/17 07:03:20;;;;;;;1.05;0.85;;;26.30;45.30;;;;;;5063266;28;21244;-64
2022/06/17 07:05:55;;;;;;;0.75;0.70;;;26.20;45.30;;;;;;5063411;28;20498;-64
2022/06/17 07:08:24;;;;;;;0.60;0.60;;;26.30;45.40;;;;;;5061590;28;20103;-64
2022/06/17 07:10:52;;;;;;;0.70;0.70;;;26.20;45.30;;;;;;5060335;28;20042;-60
2022/06/17 07:13:19;;;;;;;0.95;0.80;;;26.20;45.40;;;;;;5062558;28;20028;-65
2022/06/17 07:15:46;;;;;;;0.77;0.70;;;26.20;45.30;;;;;;5063744;28;20852;-62
2022/06/17 07:18:19;;;;;;;0.73;0.70;;;26.20;45.30;;;;;;5063378;28;20108;-65
2022/06/17 07:20:52;;;;;;;1.10;0.80;;;26.20;45.30;;;;;;5060012;28;20329;-62
2022/06/17 07:23:22;;;;;;;0.68;0.68;;;26.20;45.30;;;;;;5062446;28;20043;-67
2022/06/17 07:25:49;;;;;;;1.33;0.98;;;26.20;45.30;;;;;;5062683;28;20096;-65
2022/06/17 07:28:20;;;;;;;0.90;0.77;;;26.20;45.30;;;;;;5062885;28;20107;-61
2022/06/17 07:30:48;;;;;;;0.70;0.70;;;26.20;45.40;;;;;;5063405;28;20056;-61
2022/06/17 07:33:16;;;;;;;0.85;0.80;;;26.20;45.40;;;;;;5062993;28;20094;-62
2022/06/17 07:35:44;;;;;;;0.70;0.70;;;26.20;45.40;;;;;;5062076;28;20119;-66
2022/06/17 07:41:01;;;;;;;0.65;0.65;;;26.20;45.50;;;;;;5059554;28;20039;-63
2022/06/17 07:43:27;;;;;;;0.90;0.80;;;26.20;45.40;;;;;;5058584;28;20123;-64
2022/06/17 07:45:52;;;;;;;0.85;0.73;;;26.20;45.40;;;;;;5060690;28;20474;-61
2022/06/17 07:48:19;;;;;;;0.90;0.77;;;26.20;45.40;;;;;;5057543;28;20046;-62
2022/06/17 07:50:45;;;;;;;0.68;0.68;;;26.20;45.40;;;;;;5059343;28;20911;-62
2022/06/17 07:53:13;;;;;;;0.85;0.70;;;26.20;45.40;;;;;;5057475;28;20042;-61
2022/06/17 07:55:40;;;;;;;0.70;0.70;;;26.20;45.50;;;;;;5057838;28;20036;-62
2022/06/17 07:58:06;;;;;;;1.00;0.70;;;26.20;45.50;;;;;;5059993;28;20024;-61
2022/06/17 08:00:37;;;;;;;0.80;0.80;;;26.20;45.50;;;;;;5059468;28;20398;-66
2022/06/17 08:03:04;;;;;;;1.00;0.70;;;26.20;45.50;;;;;;5058497;28;20496;-67
2022/06/17 08:05:30;;;;;;;0.80;0.80;;;26.20;45.50;;;;;;5059066;28;20033;-67
2022/06/17 08:07:58;;;;;;;0.90;0.80;;;26.20;45.50;;;;;;5056944;28;20040;-66
2022/06/17 08:10:28;;;;;;;0.90;0.70;;;26.20;45.50;;;;;;5057253;28;20383;-66
2022/06/17 08:12:54;;;;;;;0.90;0.80;;;26.20;45.50;;;;;;5059185;28;20025;-63
2022/06/17 08:15:20;;;;;;;1.00;0.77;;;26.20;45.50;;;;;;5058563;28;20102;-63
2022/06/17 08:17:47;;;;;;;1.00;0.80;;;26.10;45.50;;;;;;5057579;28;20090;-62
2022/06/17 08:20:34;;;;;;;1.15;0.70;;;26.10;45.50;;;;;;5051068;28;20036;-62
2022/06/17 08:23:02;;;;;;;0.90;0.80;;;26.10;45.50;;;;;;5056733;28;20829;-64
2022/06/17 08:25:28;;;;;;;0.70;0.70;;;26.10;45.50;;;;;;5054968;28;20021;-64
2022/06/17 08:27:55;;;;;;;0.80;0.80;;;26.10;45.50;;;;;;5051801;28;20108;-64
2022/06/17 08:30:25;;;;;;;0.63;0.63;;;26.10;45.50;;;;;;5059050;28;20462;-62
2022/06/17 08:32:53;;;;;;;0.90;0.70;;;26.10;45.50;;;;;;5058802;28;20104;-62
2022/06/17 08:35:29;;;;;;;0.80;0.70;;;26.10;45.50;;;;;;5059612;28;20024;-62
2022/06/17 08:38:01;;;;;;;0.98;0.80;;;26.10;45.50;;;;;;5057115;28;20151;-63
2022/06/17 08:40:39;;;;;;;0.82;0.80;;;26.10;45.50;;;;;;5054154;28;20055;-65
2022/06/17 08:43:31;;;;;;;0.80;0.70;;;26.10;45.50;;;;;;5056117;28;20720;-62
2022/06/17 08:46:21;;;;;;;1.45;0.70;;;26.10;45.50;;;;;;5057387;28;20040;-64
2022/06/17 08:49:17;;;;;;;0.85;0.80;;;26.10;45.60;;;;;;5056835;28;20036;-61
2022/06/17 08:52:04;;;;;;;0.70;0.70;;;26.10;45.60;;;;;;5057711;28;20035;-66
2022/06/17 08:54:56;;;;;;;1.08;0.73;;;26.10;45.60;;;;;;5055369;28;20115;-64
2022/06/17 08:58:02;;;;;;;0.70;0.70;;;26.10;45.70;;;;;;5039433;28;20532;-61
2022/06/17 09:00:30;;;;;;;0.85;0.70;;;26.10;45.70;;;;;;5057343;28;20052;-65
2022/06/17 09:03:16;;;;;;;0.75;0.70;;;26.10;45.90;;;;;;5055575;28;20795;-63
2022/06/17 09:05:42;;;;;;;0.50;0.50;;;26.10;45.80;;;;;;5058734;28;20056;-62
2022/06/17 09:08:49;;;;;;;0.70;0.70;;;26.10;45.80;;;;;;5055931;28;20063;-61
2022/06/17 09:11:38;;;;;;;1.23;0.80;;;26.10;45.80;;;;;;5035872;28;20690;-64
2022/06/17 09:14:22;;;;;;;0.93;0.75;;;26.10;45.80;;;;;;5058206;28;20031;-65
2022/06/17 09:17:06;;;;;;;0.75;0.70;;;26.10;45.80;;;;;;5059430;28;20229;-65
2022/06/17 09:19:36;;;;;;;0.63;0.63;;;26.10;45.80;;;;;;5057356;28;20486;-65
2022/06/17 09:22:09;;;;;;;0.82;0.70;;;26.10;45.80;;;;;;5060049;28;20402;-66
2022/06/17 09:24:43;;;;;;;1.30;0.77;;;26.10;45.90;;;;;;5053657;28;20029;-61
2022/06/17 09:27:15;;;;;;;1.02;0.70;;;26.10;45.80;;;;;;5057842;28;20055;-66
2022/06/17 09:29:49;;;;;;;1.08;0.80;;;26.10;45.90;;;;;;5058376;28;20671;-62
2022/06/17 09:32:21;;;;;;;0.70;0.70;;;26.10;45.90;;;;;;5056589;28;20087;-62
2022/06/17 09:35:04;;;;;;;1.00;0.80;;;26.10;45.90;;;;;;5055793;28;20148;-64
2022/06/17 09:38:06;;;;;;;0.98;0.75;;;26.10;46.00;;;;;;5052802;28;20469;-65
2022/06/17 09:40:53;;;;;;;0.95;0.80;;;26.10;46.00;;;;;;5053283;28;20100;-65
2022/06/17 09:43:50;;;;;;;1.23;0.70;;;26.10;46.00;;;;;;5056057;28;20061;-61
2022/06/17 09:46:25;;;;;;;0.73;0.70;;;26.10;46.00;;;;;;5055145;28;20032;-65
2022/06/17 09:49:07;;;;;;;0.85;0.80;;;26.10;46.00;;;;;;5053543;28;20180;-63
2022/06/17 09:52:01;;;;;;;1.15;0.73;;;26.10;46.00;;;;;;5054170;28;20028;-62
2022/06/17 09:54:43;;;;;;;0.70;0.70;;;26.10;46.00;;;;;;5053959;28;20119;-66
2022/06/17 09:57:14;;;;;;;1.02;0.70;;;26.10;46.10;;;;;;5056245;28;20051;-63
2022/06/17 09:59:54;;;;;;;1.05;0.80;;;26.10;46.10;;;;;;5053603;28;20044;-66
2022/06/17 10:02:27;;;;;;;1.45;0.73;;;26.10;46.10;;;;;;5053598;28;20106;-67
2022/06/17 10:04:54;;;;;;;1.20;0.88;;;26.10;46.10;;;;;;5064424;28;20025;-63
2022/06/17 10:07:38;;;;;;;1.30;0.90;;;26.10;46.20;;;;;;5056054;28;20029;-61
2022/06/17 10:10:35;;;;;;;1.00;0.80;;;26.10;46.10;;;;;;5051623;28;20036;-61
2022/06/17 10:13:10;;;;;;;0.98;0.80;;;26.10;46.10;;;;;;5052241;28;20122;-66
2022/06/17 10:19:03;;;;;;;0.85;0.80;;;26.00;46.10;;;;;;5055549;28;20032;-61
2022/06/17 10:21:51;;;;;;;1.23;0.80;;;26.10;46.20;;;;;;5058558;28;20094;-67
2022/06/17 10:24:54;;;;;;;1.02;0.77;;;26.10;46.20;;;;;;5054147;28;20040;-63
2022/06/17 10:27:37;;;;;;;1.50;0.80;;;26.10;46.20;;;;;;5042501;28;20037;-67
2022/06/17 10:30:03;;;;;;;1.10;0.80;;;26.10;46.30;;;;;;5058100;28;20063;-65
2022/06/17 10:32:32;;;;;;;1.17;0.75;;;26.10;46.30;;;;;;5056818;28;20041;-62
2022/06/17 10:35:01;;;;;;;1.77;0.95;;;26.10;46.30;;;;;;5055614;28;20028;-64
2022/06/17 10:37:29;;;;;;;1.35;0.80;;;26.10;46.30;;;;;;5053694;28;20080;-62
2022/06/17 10:39:56;;;;;;;1.05;0.90;;;26.10;46.30;;;;;;5052772;28;20033;-65
2022/06/17 10:42:24;;;;;;;1.00;0.80;;;26.10;46.30;;;;;;5064788;28;20532;-62
2022/06/17 10:44:52;;;;;;;1.52;0.80;;;26.10;46.30;;;;;;5049985;28;20032;-65
2022/06/17 10:47:21;;;;;;;0.90;0.80;;;26.10;46.50;;;;;;5052836;28;20036;-60
2022/06/17 10:49:50;;;;;;;0.70;0.70;;;26.10;46.50;;;;;;5060667;28;20028;-64
2022/06/17 10:52:21;;;;;;;1.30;0.75;;;26.10;46.60;;;;;;5045289;28;20539;-62
2022/06/17 10:54:50;;;;;;;0.70;0.70;;;26.20;46.60;;;;;;5050873;28;20032;-65
2022/06/17 10:58:02;;;;;;;1.35;0.70;;;26.20;46.60;;;;;;5048586;28;21657;-66
2022/06/17 11:00:28;;;;;;;1.00;0.70;;;26.30;46.60;;;;;;5049786;28;20672;-64
2022/06/17 11:02:54;;;;;;;0.88;0.80;;;26.30;46.60;;;;;;5052738;28;20052;-62
2022/06/17 11:05:31;;;;;;;1.60;0.77;;;26.30;46.60;;;;;;5044756;28;20095;-61
2022/06/17 11:07:58;;;;;;;0.70;0.70;;;26.30;46.60;;;;;;5046695;28;20032;-65
2022/06/17 11:10:26;;;;;;;0.77;0.77;;;26.30;46.60;;;;;;5052843;28;20028;-65
2022/06/17 11:13:04;;;;;;;1.95;0.80;;;26.30;46.50;;;;;;5060352;28;20396;-64
2022/06/17 11:15:34;;;;;;;0.80;0.70;;;26.30;46.60;;;;;;5058104;28;20032;-65
2022/06/17 11:18:20;;;;;;;1.63;0.90;;;26.40;46.60;;;;;;5062505;28;21116;-65
2022/06/17 11:20:59;;;;;;;0.88;0.65;;;26.40;46.60;;;;;;5057234;28;20038;-64
2022/06/17 11:23:33;;;;;;;0.63;0.63;;;26.40;46.60;;;;;;5057742;28;20739;-63
2022/06/17 11:26:27;;;;;;;0.60;0.60;;;26.40;46.50;;;;;;5058468;28;20028;-64
2022/06/17 11:28:56;;;;;;;1.30;0.80;;;26.50;46.60;;;;;;5060994;28;20129;-63
2022/06/17 11:31:21;;;;;;;;;;;26.50;46.50;;;;;;5058340;28;20032;-66
2022/06/17 11:33:53;;;;;;;1.17;0.80;;;26.50;46.60;;;;;;5065547;28;19973;-66
2022/06/17 11:36:20;;;;;;;1.20;0.80;;;26.50;46.50;;;;;;5059768;28;20757;-65
2022/06/17 11:38:47;;;;;;;0.70;0.70;;;26.50;46.50;;;;;;5059465;28;20036;-65
2022/06/17 11:41:31;;;;;;;0.73;0.65;;;26.50;46.50;;;;;;5060261;28;20119;-65
2022/06/17 11:44:09;;;;;;;0.60;0.60;;;26.50;46.50;;;;;;5061455;28;20514;-64
2022/06/17 11:46:35;;;;;;;0.80;0.75;;;26.60;46.60;;;;;;5066347;28;20389;-66
2022/06/17 11:49:15;;;;;;;0.80;0.80;;;26.60;46.60;;;;;;5060866;28;20024;-61
2022/06/17 11:51:52;;;;;;;0.93;0.70;;;26.60;46.60;;;;;;5058131;28;20091;-66
2022/06/17 11:54:29;;;;;;;0.68;0.68;;;26.60;46.70;;;;;;5059144;28;20443;-64
2022/06/17 11:56:55;;;;;;;0.95;0.75;;;26.60;46.60;;;;;;5062440;28;20387;-65
2022/06/17 11:59:27;;;;;;;1.10;0.80;;;26.60;46.60;;;;;;5059505;28;20031;-62
2022/06/17 12:01:55;;;;;;;0.60;0.60;;;26.60;46.60;;;;;;5052210;28;20716;-61
2022/06/17 12:04:50;;;;;;;1.80;0.70;;;26.60;46.60;;;;;;5066309;28;20032;-65
2022/06/17 12:07:22;;;;;;;1.00;0.70;;;26.60;46.70;;;;;;5074128;28;20039;-65
2022/06/17 12:09:53;;;;;;;0.55;0.55;;;26.70;46.80;;;;;;5066415;28;20023;-64
2022/06/17 12:12:22;;;;;;;1.10;0.80;;;26.70;46.80;;;;;;5072864;28;20036;-64
2022/06/17 12:15:00;;;;;;;0.95;0.80;;;26.70;46.80;;;;;;5074928;28;20032;-63
2022/06/17 12:17:27;;;;;;;1.20;0.80;;;26.80;46.90;;;;;;5070409;28;20136;-63
2022/06/17 12:19:53;;;;;;;1.05;0.70;;;26.70;46.80;;;;;;5070200;28;20024;-65
2022/06/17 12:22:29;;;;;;;0.95;0.70;;;26.80;46.70;;;;;;5068514;28;20070;-64
2022/06/17 12:25:02;;;;;;;1.52;0.80;;;26.80;46.60;;;;;;5063178;28;21627;-65
2022/06/17 12:27:52;;;;;;;1.15;0.80;;;26.80;46.60;;;;;;5065324;28;20039;-65
2022/06/17 12:30:28;;;;;;;1.20;0.70;;;26.80;46.60;;;;;;5066869;28;20040;-61
2022/06/17 12:32:59;;;;;;;0.65;0.65;;;26.80;46.60;;;;;;5068138;28;20048;-65
2022/06/17 12:35:46;;;;;;;0.60;0.60;;;26.80;46.60;;;;;;5071298;28;20028;-65
2022/06/17 12:38:35;;;;;;;0.70;0.70;;;26.80;46.60;;;;;;5061229;28;20115;-65
2022/06/17 12:41:18;;;;;;;0.70;0.70;;;26.80;46.60;;;;;;5056516;28;20036;-61
2022/06/17 12:43:50;;;;;;;1.58;0.70;;;26.80;46.60;;;;;;5058309;28;21264;-64
2022/06/17 12:46:48;;;;;;;0.52;0.52;;;26.80;46.60;;;;;;5068426;28;20055;-67
2022/06/17 12:55:17;;;;;;;0.60;0.60;;;26.80;46.60;;;;;;5061679;28;20765;-61
2022/06/17 12:57:50;;;;;;;0.82;0.68;;;26.80;46.60;;;;;;5067911;28;20118;-61
2022/06/17 13:00:42;;;;;;;0.95;0.70;;;26.80;46.60;;;;;;5065935;28;20123;-62
2022/06/17 13:03:41;;;;;;;0.77;0.60;;;26.80;46.60;;;;;;5055101;28;20357;-67
2022/06/17 13:06:25;;;;;;;0.73;0.68;;;26.80;46.60;;;;;;5060262;28;20027;-65
2022/06/17 13:08:57;;;;;;;0.82;0.70;;;26.80;46.70;;;;;;5060732;28;20090;-66
2022/06/17 13:11:36;;;;;;;0.60;0.60;;;26.80;46.60;;;;;;5064504;28;20036;-65
2022/06/17 13:14:35;;;;;;;0.70;0.70;;;26.80;46.60;;;;;;5066788;28;20086;-65
2022/06/17 13:17:24;;;;;;;0.67;0.60;;;26.80;46.70;;;;;;5062959;28;20086;-62
2022/06/17 13:20:04;;;;;;;0.73;0.65;;;26.80;46.70;;;;;;5065904;28;20286;-65
2022/06/17 13:22:42;;;;;;;1.25;0.80;;;26.80;46.70;;;;;;5065288;28;20052;-62
2022/06/17 13:25:17;;;;;;;0.80;0.75;;;26.80;46.70;;;;;;5066349;28;20032;-61
2022/06/17 13:28:05;;;;;;;0.77;0.70;;;26.80;46.70;;;;;;5058247;28;20021;-65
2022/06/17 13:30:38;;;;;;;0.90;0.73;;;26.80;46.70;;;;;;5066553;28;20043;-64
2022/06/17 13:33:26;;;;;;;0.73;0.65;;;26.80;46.70;;;;;;5063566;28;20855;-66
2022/06/17 13:35:59;;;;;;;0.90;0.80;;;26.80;46.70;;;;;;5062446;28;20373;-62